Time;durP1;ratioP1;P1;durP2;ratioP2;P2;SDS_P1;SDS_P2;PMS_P1;PMS_P2;Temp;Humidity;BMP_temperature;BMP_pressure;BME280_temperature;BME280_humidity;BME280_pressure;Samples;Min_cycle;Max_cycle;Signal;HPM_P1;HPM_P2
2023/07/03 00:01:20;;;;;;;8.88;5.15;;;;;;;17.17;85.51;95910.81;5094292;28;20555;-66
2023/07/03 00:03:51;;;;;;;7.35;5.60;;;;;;;17.21;85.79;95913.19;5094344;28;20040;-65
2023/07/03 00:06:18;;;;;;;7.65;5.60;;;;;;;17.25;86.12;95904.09;5094308;28;20044;-65
2023/07/03 00:08:45;;;;;;;9.48;6.55;;;;;;;17.26;85.49;95909.25;5094169;28;20482;-65
2023/07/03 00:11:12;;;;;;;6.68;5.88;;;;;;;17.30;85.44;95908.06;5094250;28;20044;-66
2023/07/03 00:13:39;;;;;;;6.80;5.22;;;;;;;17.33;85.61;95904.34;5094102;28;20547;-66
2023/07/03 00:16:08;;;;;;;9.18;5.18;;;;;;;17.37;85.35;95911.06;5094066;28;20104;-66
2023/07/03 00:18:35;;;;;;;9.38;5.85;;;;;;;17.36;85.78;95905.91;5094056;28;20079;-65
2023/07/03 00:21:02;;;;;;;10.80;6.13;;;;;;;17.38;86.14;95912.78;5094078;28;20048;-65
2023/07/03 00:23:29;;;;;;;6.00;5.18;;;;;;;17.41;85.96;95909.91;5093974;28;20043;-65
2023/07/03 00:25:56;;;;;;;10.80;5.63;;;;;;;17.46;85.94;95911.34;5093922;28;20075;-65
2023/07/03 00:28:23;;;;;;;13.32;6.35;;;;;;;17.42;85.50;95921.31;5093946;28;20044;-65
2023/07/03 00:30:50;;;;;;;9.60;6.05;;;;;;;17.41;85.42;95915.19;5093710;28;20052;-65
2023/07/03 00:33:19;;;;;;;9.80;6.15;;;;;;;17.39;85.37;95909.16;5093967;28;20044;-65
2023/07/03 00:35:46;;;;;;;9.77;5.65;;;;;;;17.40;85.54;95915.31;5093896;28;20040;-65
2023/07/03 00:38:13;;;;;;;6.90;5.53;;;;;;;17.39;85.53;95911.81;5093721;28;20452;-66
2023/07/03 00:40:40;;;;;;;9.25;5.82;;;;;;;17.41;85.34;95912.56;5093710;28;20040;-66
2023/07/03 00:43:07;;;;;;;9.13;6.00;;;;;;;17.35;85.08;95913.00;5093614;28;20509;-66
2023/07/03 00:45:34;;;;;;;7.97;5.93;;;;;;;17.33;85.68;95916.75;5093361;28;20047;-66
2023/07/03 00:48:02;;;;;;;9.55;5.97;;;;;;;17.32;85.17;95918.53;5093500;28;20052;-66
2023/07/03 00:50:30;;;;;;;12.57;6.35;;;;;;;17.32;85.22;95915.88;5093309;28;20048;-66
2023/07/03 00:53:01;;;;;;;10.30;6.18;;;;;;;17.30;85.52;95920.44;5093523;28;20524;-65
2023/07/03 00:55:28;;;;;;;7.10;5.68;;;;;;;17.32;85.92;95921.16;5093455;28;20490;-65
2023/07/03 00:57:56;;;;;;;8.57;5.90;;;;;;;17.33;85.38;95919.38;5093436;28;20040;-66
2023/07/03 01:00:27;;;;;;;8.55;6.20;;;;;;;17.29;85.62;95919.59;5093389;28;20496;-66
2023/07/03 01:03:00;;;;;;;8.15;6.07;;;;;;;17.32;85.54;95918.53;5092138;28;20482;-65
2023/07/03 01:05:32;;;;;;;11.93;6.22;;;;;;;17.30;85.27;95915.16;5093366;28;20508;-66
2023/07/03 01:08:00;;;;;;;10.38;6.50;;;;;;;17.31;85.65;95919.50;5093226;28;20134;-65
2023/07/03 01:10:29;;;;;;;9.45;5.85;;;;;;;17.24;85.63;95912.97;5093122;28;20094;-65
2023/07/03 01:13:00;;;;;;;10.20;6.38;;;;;;;17.23;85.95;95917.41;5093269;28;20079;-66
2023/07/03 01:15:31;;;;;;;8.45;6.82;;;;;;;17.20;86.55;95914.16;5093136;28;20046;-65
2023/07/03 01:18:01;;;;;;;11.63;6.00;;;;;;;17.14;86.88;95916.31;5093159;28;20490;-65
2023/07/03 01:20:34;;;;;;;10.45;6.70;;;;;;;17.12;88.04;95917.38;5093131;28;20054;-66
2023/07/03 01:23:07;;;;;;;9.65;6.95;;;;;;;17.13;88.12;95922.53;5093160;28;20129;-65
2023/07/03 01:25:40;;;;;;;8.40;6.78;;;;;;;17.18;88.05;95933.63;5093055;28;20059;-65
2023/07/03 01:28:11;;;;;;;11.85;6.80;;;;;;;17.17;87.73;95929.31;5093066;28;20097;-65
2023/07/03 01:30:40;;;;;;;;;;;;;;;17.18;87.34;95933.63;5093453;28;20048;-65
2023/07/03 01:33:10;;;;;;;8.95;7.13;;;;;;;17.14;87.58;95932.16;5093004;28;19919;-66
2023/07/03 01:35:38;;;;;;;10.60;7.00;;;;;;;17.16;87.37;95929.41;5093008;28;20052;-66
2023/07/03 01:38:07;;;;;;;9.85;6.00;;;;;;;17.05;86.99;95904.59;5093041;28;20127;-65
2023/07/03 01:40:36;;;;;;;9.93;7.72;;;;;;;17.13;86.94;95941.03;5092920;28;20448;-65
2023/07/03 01:43:04;;;;;;;11.68;6.97;;;;;;;17.11;87.49;95935.03;5092931;28;20044;-65
2023/07/03 01:45:35;;;;;;;8.70;7.10;;;;;;;17.09;87.73;95942.22;5092676;28;20093;-65
2023/07/03 01:48:01;;;;;;;;;;;;;;;17.12;87.70;95943.78;5093341;28;20048;-65
2023/07/03 01:50:31;;;;;;;7.97;7.10;;;;;;;17.09;87.67;95939.56;5092747;28;20011;-65
2023/07/03 01:53:03;;;;;;;10.88;7.00;;;;;;;17.10;87.73;95943.06;5092778;28;20481;-66
2023/07/03 01:55:40;;;;;;;11.73;7.53;;;;;;;17.11;87.44;95940.31;5092868;28;20054;-65
2023/07/03 01:58:16;;;;;;;8.27;7.38;;;;;;;17.12;87.17;95943.78;5092789;28;20486;-65
2023/07/03 02:00:48;;;;;;;11.50;7.63;;;;;;;17.03;87.30;95947.91;5092782;28;20044;-65
2023/07/03 02:03:23;;;;;;;10.50;6.85;;;;;;;17.01;87.70;95948.03;5092755;28;20051;-65
2023/07/03 02:05:53;;;;;;;12.63;6.75;;;;;;;17.01;87.61;95953.31;5092812;28;20044;-65
2023/07/03 02:08:22;;;;;;;10.13;6.97;;;;;;;16.99;87.60;95949.09;5092713;28;20095;-65
2023/07/03 02:10:50;;;;;;;11.00;7.40;;;;;;;17.01;87.30;95950.66;5093629;28;20134;-65
2023/07/03 02:13:17;;;;;;;11.23;6.45;;;;;;;17.04;86.62;95954.91;5096526;28;20048;-65
2023/07/03 02:15:44;;;;;;;9.15;7.22;;;;;;;17.05;86.02;95965.38;5096572;28;20044;-65
2023/07/03 02:18:17;;;;;;;8.40;6.80;;;;;;;17.03;86.08;95954.06;5096428;28;20090;-65
2023/07/03 02:20:44;;;;;;;13.85;6.70;;;;;;;17.06;85.61;95968.81;5096365;28;20054;-65
2023/07/03 02:23:11;;;;;;;8.75;6.80;;;;;;;17.02;85.55;95960.31;5096401;28;20048;-65
2023/07/03 02:25:38;;;;;;;8.52;6.93;;;;;;;17.00;85.56;95964.84;5096341;28;20144;-65
2023/07/03 02:28:08;;;;;;;12.80;7.72;;;;;;;17.04;86.01;95962.84;5096223;28;20044;-65
2023/07/03 02:30:35;;;;;;;13.80;6.88;;;;;;;17.05;85.33;95970.66;5094907;28;20059;-66
2023/07/03 02:33:02;;;;;;;11.95;7.32;;;;;;;17.05;85.02;95972.44;5096153;28;20075;-65
2023/07/03 02:35:29;;;;;;;9.82;7.03;;;;;;;17.02;85.26;95972.66;5096062;28;20075;-66
2023/07/03 02:37:56;;;;;;;9.93;7.75;;;;;;;16.99;85.83;95978.16;5096082;28;20044;-65
2023/07/03 02:40:23;;;;;;;9.50;7.35;;;;;;;16.96;86.21;95979.25;5096016;28;20052;-65
2023/07/03 02:42:50;;;;;;;10.45;7.97;;;;;;;16.99;87.33;95980.81;5095918;28;20044;-65
2023/07/03 02:45:19;;;;;;;10.50;7.63;;;;;;;17.02;86.97;95988.50;5095674;28;20048;-65
2023/07/03 02:47:46;;;;;;;7.43;6.53;;;;;;;16.94;86.62;95978.50;5095925;28;20048;-66
2023/07/03 02:50:13;;;;;;;13.30;8.00;;;;;;;16.85;87.49;95981.81;5095749;28;20048;-65
2023/07/03 02:52:40;;;;;;;13.32;8.07;;;;;;;16.85;88.03;95981.81;5095754;28;20050;-66
2023/07/03 02:55:08;;;;;;;9.00;6.65;;;;;;;16.88;87.94;95985.06;5095768;28;20086;-66
2023/07/03 02:57:35;;;;;;;10.43;7.43;;;;;;;16.94;87.93;95989.06;5095599;28;20573;-65
2023/07/03 03:00:03;;;;;;;14.23;7.97;;;;;;;16.98;88.30;95990.53;5095745;28;20128;-66
2023/07/03 03:02:31;;;;;;;9.63;6.90;;;;;;;16.99;87.78;95991.38;5095909;28;20059;-66
2023/07/03 03:04:58;;;;;;;11.05;7.70;;;;;;;17.01;87.84;95992.94;5095432;28;20070;-65
2023/07/03 03:07:25;;;;;;;10.02;7.78;;;;;;;17.04;88.80;95991.91;5095477;28;20052;-66
2023/07/03 03:09:52;;;;;;;10.43;8.20;;;;;;;16.97;90.35;95988.00;5095354;28;20083;-66
2023/07/03 03:12:20;;;;;;;12.32;8.35;;;;;;;17.02;90.75;95985.88;5095395;28;20075;-66
2023/07/03 03:14:47;;;;;;;10.52;8.30;;;;;;;17.08;90.37;95984.59;5095274;28;20052;-66
2023/07/03 03:17:14;;;;;;;12.18;8.35;;;;;;;17.12;91.11;95984.28;5095248;28;20048;-66
2023/07/03 03:19:43;;;;;;;9.50;7.15;;;;;;;17.17;90.41;95998.00;5095181;28;20048;-66
2023/07/03 03:22:10;;;;;;;11.10;7.55;;;;;;;17.24;89.05;95994.88;5094063;28;20090;-66
2023/07/03 03:24:37;;;;;;;8.98;7.10;;;;;;;17.29;88.22;95987.47;5095067;28;20044;-66
2023/07/03 03:27:06;;;;;;;11.20;7.15;;;;;;;17.35;87.82;95991.44;5095082;28;20044;-66
2023/07/03 03:29:34;;;;;;;10.25;7.57;;;;;;;17.41;87.39;95996.28;5095044;28;20048;-65
2023/07/03 03:32:01;;;;;;;13.13;7.22;;;;;;;17.51;86.97;95996.44;5094816;28;20139;-65
2023/07/03 03:34:28;;;;;;;9.27;7.60;;;;;;;17.64;87.12;95999.03;5094911;28;20094;-66
2023/07/03 03:36:57;;;;;;;12.85;7.35;;;;;;;17.75;86.92;95995.53;5094907;28;20048;-65
2023/07/03 03:39:24;;;;;;;7.65;6.57;;;;;;;17.90;86.24;96004.09;5094777;28;20048;-66
2023/07/03 03:41:52;;;;;;;11.38;6.97;;;;;;;18.02;84.34;95999.69;5094761;28;20048;-65
2023/07/03 03:44:19;;;;;;;9.93;7.07;;;;;;;18.05;83.70;96005.59;5094632;28;20044;-66
2023/07/03 03:46:46;;;;;;;9.32;6.93;;;;;;;18.09;83.60;96010.66;5094482;28;20570;-66
2023/07/03 03:49:14;;;;;;;10.23;7.75;;;;;;;18.11;83.70;96014.03;5094720;28;20051;-66
2023/07/03 03:51:41;;;;;;;8.15;7.15;;;;;;;18.16;83.63;96022.47;5094501;28;20409;-66
2023/07/03 03:54:10;;;;;;;9.95;7.47;;;;;;;18.26;83.82;96010.22;5094528;28;20142;-66
2023/07/03 03:56:38;;;;;;;8.80;7.80;;;;;;;18.55;83.58;96011.53;5094482;28;20075;-65
2023/07/03 03:59:05;;;;;;;11.30;7.57;;;;;;;18.99;83.20;96019.53;5094486;28;20055;-66
2023/07/03 04:01:34;;;;;;;10.68;7.07;;;;;;;19.49;80.83;96012.06;5094483;28;20410;-66
2023/07/03 04:04:02;;;;;;;7.70;6.82;;;;;;;19.93;78.28;96026.06;5094440;28;20697;-66
2023/07/03 04:06:29;;;;;;;9.52;6.72;;;;;;;20.32;76.66;96027.34;5094237;28;20040;-66
2023/07/03 04:08:59;;;;;;;12.82;6.72;;;;;;;20.48;75.25;96026.84;5094278;28;20508;-66
2023/07/03 04:11:30;;;;;;;8.33;6.53;;;;;;;20.67;74.86;96020.75;5094188;28;20513;-66
2023/07/03 04:13:57;;;;;;;10.68;6.35;;;;;;;21.10;74.10;96027.78;5094165;28;20076;-66
2023/07/03 04:16:26;;;;;;;8.00;6.28;;;;;;;21.55;72.61;96027.25;5094174;28;20044;-66
2023/07/03 04:18:53;;;;;;;9.63;7.05;;;;;;;21.79;69.70;96023.34;5094128;28;20512;-66
2023/07/03 04:21:21;;;;;;;7.82;6.35;;;;;;;21.91;68.73;96037.34;5094063;28;20044;-66
2023/07/03 04:23:48;;;;;;;11.25;6.38;;;;;;;21.84;68.50;96028.25;5094076;28;20086;-66
2023/07/03 04:26:16;;;;;;;15.52;7.28;;;;;;;21.82;68.76;96035.53;5093905;28;20074;-66
2023/07/03 04:28:45;;;;;;;10.57;6.60;;;;;;;21.81;68.85;96041.84;5093968;28;20138;-66
2023/07/03 04:31:12;;;;;;;8.20;6.50;;;;;;;21.94;69.91;96045.06;5093865;28;20055;-66
2023/07/03 04:33:40;;;;;;;8.80;7.20;;;;;;;22.29;69.69;96042.75;5093581;28;20098;-66
2023/07/03 04:36:07;;;;;;;8.43;6.97;;;;;;;22.77;67.18;96047.25;5093872;28;20134;-66
2023/07/03 04:38:34;;;;;;;11.18;7.32;;;;;;;23.24;66.29;96038.31;5093814;28;20097;-66
2023/07/03 04:41:02;;;;;;;7.63;6.32;;;;;;;23.71;64.46;96047.13;5093698;28;20097;-66
2023/07/03 04:43:29;;;;;;;7.28;6.57;;;;;;;24.16;62.67;96045.34;5093646;28;20180;-66
2023/07/03 04:46:03;;;;;;;11.60;7.43;;;;;;;24.61;62.04;96055.97;5093401;28;20127;-66
2023/07/03 04:48:30;;;;;;;8.38;6.75;;;;;;;24.97;59.20;96058.53;5093549;28;20048;-66
2023/07/03 04:50:58;;;;;;;10.65;6.88;;;;;;;25.26;58.63;96061.81;5093496;28;20047;-66
2023/07/03 04:53:27;;;;;;;9.82;7.28;;;;;;;25.52;58.24;96060.84;5093454;28;20047;-66
2023/07/03 04:55:54;;;;;;;9.70;7.10;;;;;;;25.87;55.11;96066.13;5093526;28;20441;-66
2023/07/03 04:58:21;;;;;;;8.20;7.40;;;;;;;26.19;55.58;96056.38;5093384;28;20122;-66
2023/07/03 05:00:48;;;;;;;8.65;6.80;;;;;;;26.62;56.11;96066.94;5093433;28;20056;-66
2023/07/03 05:03:17;;;;;;;10.07;6.88;;;;;;;26.98;55.58;96070.19;5093533;28;20133;-66
2023/07/03 05:05:44;;;;;;;8.25;6.53;;;;;;;27.25;54.91;96066.22;5093448;28;20040;-66
2023/07/03 05:08:11;;;;;;;12.48;7.32;;;;;;;27.57;53.05;96070.75;5093328;28;20067;-66
2023/07/03 05:10:38;;;;;;;8.20;7.28;;;;;;;27.82;53.21;96063.38;5092051;28;20052;-67
2023/07/03 05:13:05;;;;;;;8.63;7.55;;;;;;;28.09;53.14;96074.59;5093260;28;20048;-66
2023/07/03 05:15:33;;;;;;;11.30;8.30;;;;;;;28.29;52.60;96071.41;5093215;28;20084;-67
2023/07/03 05:18:00;;;;;;;8.35;7.55;;;;;;;28.52;51.32;96067.84;5093143;28;20070;-67
2023/07/03 05:20:29;;;;;;;10.50;8.98;;;;;;;28.75;51.27;96070.44;5093221;28;20048;-67
2023/07/03 05:22:56;;;;;;;13.27;8.65;;;;;;;28.94;49.22;96067.41;5093092;28;20040;-67
2023/07/03 05:25:24;;;;;;;9.02;7.95;;;;;;;29.08;49.75;96071.13;5093071;28;20051;-67
2023/07/03 05:27:51;;;;;;;17.92;9.05;;;;;;;29.33;50.37;96074.34;5093094;28;20043;-67
2023/07/03 05:30:18;;;;;;;9.93;7.97;;;;;;;29.54;48.30;96069.19;5093212;28;20044;-67
2023/07/03 05:32:46;;;;;;;13.32;8.75;;;;;;;29.73;46.85;96071.28;5093051;28;20482;-67
2023/07/03 05:35:13;;;;;;;11.20;8.98;;;;;;;29.93;46.14;96086.81;5093077;28;20367;-67
2023/07/03 05:37:42;;;;;;;9.38;8.18;;;;;;;29.91;47.63;96088.88;5092978;28;20163;-67
2023/07/03 05:40:10;;;;;;;10.13;7.93;;;;;;;30.04;46.91;96085.47;5092973;28;20044;-67
2023/07/03 05:42:37;;;;;;;8.95;7.30;;;;;;;30.14;46.31;96088.69;5092948;28;20059;-67
2023/07/03 05:45:05;;;;;;;9.55;8.48;;;;;;;30.32;46.18;96087.41;5092727;28;20059;-67
2023/07/03 05:47:34;;;;;;;9.27;8.25;;;;;;;30.48;45.09;96094.38;5096871;28;20079;-67
2023/07/03 05:50:01;;;;;;;8.75;7.85;;;;;;;30.60;44.61;96083.88;5096947;28;20048;-67
2023/07/03 05:52:28;;;;;;;10.25;8.15;;;;;;;30.75;45.15;96091.88;5096836;28;20060;-67
2023/07/03 05:54:56;;;;;;;10.80;7.90;;;;;;;30.87;44.62;96092.16;5096847;28;20455;-67
2023/07/03 05:57:23;;;;;;;11.35;8.40;;;;;;;31.05;44.50;96095.38;5096915;28;20414;-67
2023/07/03 05:59:50;;;;;;;9.88;8.65;;;;;;;31.07;43.65;96098.72;5096881;28;20054;-67
2023/07/03 06:02:18;;;;;;;10.65;8.93;;;;;;;30.71;42.37;96098.69;5096758;28;20135;-67
2023/07/03 06:04:46;;;;;;;12.65;9.52;;;;;;;30.50;43.66;96088.78;5096760;28;20048;-67
2023/07/03 06:07:14;;;;;;;13.57;9.68;;;;;;;30.71;45.76;96096.00;5096667;28;20132;-67
2023/07/03 06:09:41;;;;;;;12.90;10.30;;;;;;;30.75;44.79;96105.34;5096658;28;20077;-67
2023/07/03 06:12:10;;;;;;;11.32;9.45;;;;;;;30.92;42.82;96098.84;5096375;28;20060;-67
2023/07/03 06:14:37;;;;;;;12.43;10.20;;;;;;;31.09;44.58;96094.78;5095385;28;20079;-67
2023/07/03 06:17:04;;;;;;;11.15;9.95;;;;;;;31.10;42.48;96103.72;5095236;28;20130;-67
2023/07/03 06:19:31;;;;;;;10.85;9.75;;;;;;;31.19;42.28;96102.53;5096375;28;20050;-67
2023/07/03 06:21:58;;;;;;;9.65;8.75;;;;;;;31.36;43.32;96104.91;5096380;28;20132;-67
2023/07/03 06:24:26;;;;;;;10.13;9.13;;;;;;;31.59;41.80;96101.03;5096343;28;20079;-67
2023/07/03 06:26:53;;;;;;;11.30;10.13;;;;;;;31.78;41.72;96108.38;5096377;28;20118;-67
2023/07/03 06:29:22;;;;;;;10.48;9.30;;;;;;;31.93;41.13;96107.38;5096180;28;20489;-67
2023/07/03 06:31:51;;;;;;;11.70;9.77;;;;;;;32.11;39.05;96112.19;5096129;28;20101;-67
2023/07/03 06:34:18;;;;;;;10.38;9.38;;;;;;;32.23;40.29;96111.59;5096104;28;20040;-67
2023/07/03 06:36:45;;;;;;;10.48;9.10;;;;;;;32.42;39.94;96107.25;5096107;28;20044;-67
2023/07/03 06:39:13;;;;;;;10.57;9.48;;;;;;;32.62;40.15;96114.53;5096073;28;20127;-67
2023/07/03 06:41:40;;;;;;;12.30;9.50;;;;;;;32.77;40.04;96106.19;5096105;28;20537;-67
2023/07/03 06:44:12;;;;;;;11.35;9.52;;;;;;;32.86;40.21;96109.50;5095985;28;20044;-67
2023/07/03 06:46:40;;;;;;;11.38;9.48;;;;;;;32.92;39.96;96110.53;5095745;28;20052;-67
2023/07/03 06:49:07;;;;;;;12.43;9.57;;;;;;;32.89;38.75;96107.22;5095901;28;20040;-66
2023/07/03 06:51:35;;;;;;;10.18;9.15;;;;;;;32.78;39.43;96107.88;5095680;28;20140;-67
2023/07/03 06:54:02;;;;;;;10.20;9.20;;;;;;;33.05;38.65;96107.84;5095831;28;20098;-67
2023/07/03 06:56:29;;;;;;;10.80;9.80;;;;;;;32.74;38.18;96112.84;5095579;28;20040;-66
2023/07/03 06:58:57;;;;;;;11.90;10.18;;;;;;;32.90;40.11;96103.44;5095811;28;20047;-66
2023/07/03 07:01:25;;;;;;;11.88;10.15;;;;;;;32.98;39.75;96110.53;5095777;28;20490;-67
2023/07/03 07:03:54;;;;;;;10.65;9.13;;;;;;;33.11;38.83;96109.66;5095518;28;20047;-67
2023/07/03 07:06:23;;;;;;;11.90;10.07;;;;;;;33.10;39.29;96109.88;5095545;28;20044;-67
2023/07/03 07:08:50;;;;;;;10.77;9.68;;;;;;;33.13;39.46;96118.44;5095428;28;20087;-66
2023/07/03 07:11:20;;;;;;;11.70;10.55;;;;;;;33.37;40.71;96124.19;5095308;28;20048;-66
2023/07/03 07:13:48;;;;;;;11.30;10.20;;;;;;;33.35;38.22;96115.44;5095373;28;20387;-66
2023/07/03 07:16:17;;;;;;;10.98;9.70;;;;;;;33.64;37.97;96117.84;5095289;28;20505;-67
2023/07/03 07:18:46;;;;;;;11.48;10.27;;;;;;;33.81;36.96;96123.59;5095214;28;20048;-66
2023/07/03 07:21:15;;;;;;;10.48;9.38;;;;;;;33.66;37.14;96123.88;5095260;28;20498;-66
2023/07/03 07:23:43;;;;;;;11.75;9.80;;;;;;;33.62;36.19;96122.66;5095197;28;20452;-66
2023/07/03 07:26:10;;;;;;;10.23;9.18;;;;;;;33.39;34.56;96124.81;5095104;28;20076;-66
2023/07/03 07:28:38;;;;;;;11.95;10.02;;;;;;;33.24;37.39;96124.22;5095051;28;20490;-66
2023/07/03 07:31:05;;;;;;;10.68;9.63;;;;;;;33.33;37.05;96124.81;5094940;28;20055;-67
2023/07/03 07:33:33;;;;;;;10.38;9.27;;;;;;;33.51;36.17;96130.41;5094927;28;20051;-66
2023/07/03 07:36:00;;;;;;;10.38;9.38;;;;;;;33.58;37.04;96127.63;5095032;28;20083;-66
2023/07/03 07:38:29;;;;;;;10.25;9.25;;;;;;;33.45;34.88;96130.41;5094854;28;20044;-67
2023/07/03 07:41:02;;;;;;;11.20;10.10;;;;;;;33.14;36.21;96124.69;5094842;28;20539;-66
2023/07/03 07:43:29;;;;;;;11.30;9.70;;;;;;;32.91;34.96;96128.66;5094905;28;20078;-66
2023/07/03 07:45:56;;;;;;;10.65;9.55;;;;;;;32.97;36.59;96126.97;5094425;28;20558;-67
2023/07/03 07:48:24;;;;;;;10.68;9.57;;;;;;;32.76;35.31;96129.72;5094800;28;20044;-66
2023/07/03 07:50:51;;;;;;;11.60;8.77;;;;;;;32.69;36.27;96131.63;5094709;28;20122;-66
2023/07/03 07:53:18;;;;;;;9.45;8.55;;;;;;;32.78;36.84;96132.22;5094515;28;20052;-65
2023/07/03 07:55:47;;;;;;;9.95;8.23;;;;;;;32.81;33.29;96133.66;5094596;28;20048;-66
2023/07/03 07:58:15;;;;;;;10.10;9.07;;;;;;;33.11;34.46;96134.03;5094557;28;20040;-66
2023/07/03 08:00:42;;;;;;;9.65;8.65;;;;;;;33.03;32.87;96129.69;5094545;28;20048;-66
2023/07/03 08:03:09;;;;;;;9.52;8.23;;;;;;;32.67;33.72;96138.25;5094406;28;20044;-66
2023/07/03 08:05:37;;;;;;;11.75;9.10;;;;;;;32.48;36.27;96138.03;5094458;28;20044;-67
2023/07/03 08:08:04;;;;;;;9.68;8.75;;;;;;;31.96;35.34;96135.91;5093998;28;20052;-67
2023/07/03 08:10:32;;;;;;;10.68;9.68;;;;;;;31.55;37.95;96138.44;5094572;28;20044;-67
2023/07/03 08:13:01;;;;;;;14.07;9.40;;;;;;;31.49;36.36;96139.25;5094117;28;20080;-67
2023/07/03 08:15:29;;;;;;;11.73;9.65;;;;;;;31.53;37.42;96145.91;5094295;28;20083;-67
2023/07/03 08:17:56;;;;;;;10.05;8.57;;;;;;;31.67;38.40;96140.56;5094178;28;20050;-67
2023/07/03 08:20:23;;;;;;;12.80;9.70;;;;;;;31.96;36.89;96139.41;5094138;28;20052;-67
2023/07/03 08:22:50;;;;;;;9.70;8.32;;;;;;;32.33;35.81;96141.78;5094110;28;20043;-67
2023/07/03 08:25:17;;;;;;;12.27;9.98;;;;;;;32.73;36.24;96146.38;5093969;28;20046;-66
2023/07/03 08:27:47;;;;;;;10.40;7.60;;;;;;;32.81;33.37;96142.63;5093955;28;20047;-67
2023/07/03 08:30:16;;;;;;;9.18;8.27;;;;;;;32.65;33.50;96150.13;5093997;28;20095;-66
2023/07/03 08:32:43;;;;;;;8.88;8.02;;;;;;;32.75;34.49;96146.19;5093747;28;20516;-67
2023/07/03 08:35:11;;;;;;;12.63;8.35;;;;;;;33.04;37.28;96144.06;5093740;28;20090;-66
2023/07/03 08:37:38;;;;;;;9.02;7.97;;;;;;;33.06;35.35;96149.28;5093829;28;20081;-67
2023/07/03 08:40:07;;;;;;;9.00;7.88;;;;;;;32.97;36.63;96141.34;5093852;28;20046;-67
2023/07/03 08:42:40;;;;;;;9.73;8.77;;;;;;;33.30;36.03;96150.47;5093642;28;20066;-67
2023/07/03 08:45:16;;;;;;;9.85;8.50;;;;;;;33.62;34.62;96147.06;5093409;28;20052;-67
2023/07/03 08:47:47;;;;;;;9.05;8.15;;;;;;;33.69;32.64;96141.59;5092440;28;20040;-66
2023/07/03 08:50:19;;;;;;;9.05;8.15;;;;;;;33.07;34.18;96143.66;5093570;28;20043;-66
2023/07/03 08:52:53;;;;;;;9.10;8.30;;;;;;;32.84;34.19;96138.66;5093489;28;20105;-67
2023/07/03 08:55:25;;;;;;;9.70;8.70;;;;;;;32.59;33.14;96142.03;5093605;28;20127;-67
2023/07/03 08:57:53;;;;;;;11.48;9.50;;;;;;;32.35;36.34;96147.81;5093483;28;20048;-66
2023/07/03 09:00:21;;;;;;;9.88;8.88;;;;;;;31.97;36.42;96146.50;5093409;28;20486;-67
2023/07/03 09:02:56;;;;;;;9.93;8.93;;;;;;;31.92;35.53;96143.56;5093376;28;20097;-66
2023/07/03 09:05:36;;;;;;;10.00;8.95;;;;;;;32.23;37.63;96144.06;5093409;28;20051;-67
2023/07/03 09:08:06;;;;;;;;;;;;;;;32.56;35.75;96143.25;5093777;28;20052;-67
2023/07/03 09:10:37;;;;;;;9.43;8.30;;;;;;;32.90;35.30;96148.66;5093233;28;19923;-66
2023/07/03 09:13:07;;;;;;;9.70;8.25;;;;;;;33.20;34.46;96158.22;5093223;28;20135;-67
2023/07/03 09:15:39;;;;;;;9.85;7.38;;;;;;;33.32;31.74;96147.56;5092038;28;20478;-67
2023/07/03 09:18:12;;;;;;;12.13;8.30;;;;;;;33.06;34.11;96147.41;5093207;28;20097;-67
2023/07/03 09:20:41;;;;;;;9.85;8.73;;;;;;;33.09;35.20;96148.84;5092401;28;20098;-68
2023/07/03 09:23:13;;;;;;;9.13;8.23;;;;;;;33.28;35.12;96147.97;5093215;28;20044;-67
2023/07/03 09:25:45;;;;;;;9.75;8.75;;;;;;;33.47;35.57;96148.09;5093146;28;20043;-67
2023/07/03 09:28:12;;;;;;;9.60;8.60;;;;;;;33.74;35.79;96156.16;5093181;28;20051;-67
2023/07/03 09:30:40;;;;;;;10.68;9.57;;;;;;;33.54;34.41;96145.38;5093137;28;20055;-67
2023/07/03 09:33:09;;;;;;;9.93;8.77;;;;;;;33.50;35.18;96153.09;5093024;28;20460;-66
2023/07/03 09:35:40;;;;;;;9.63;8.60;;;;;;;33.51;33.15;96148.53;5092976;28;20056;-67
2023/07/03 09:38:12;;;;;;;10.35;9.25;;;;;;;33.41;33.83;96146.28;5093057;28;20048;-67
2023/07/03 09:40:43;;;;;;;11.43;8.48;;;;;;;33.43;33.79;96141.47;5093056;28;20047;-67
2023/07/03 09:43:16;;;;;;;11.27;9.05;;;;;;;33.24;32.21;96135.06;5092979;28;20049;-67
2023/07/03 09:45:43;;;;;;;9.73;8.73;;;;;;;32.93;34.89;96140.13;5092844;28;20102;-67
2023/07/03 09:48:19;;;;;;;10.05;8.60;;;;;;;32.92;35.72;96140.31;5092949;28;20044;-67
2023/07/03 09:50:46;;;;;;;9.82;8.80;;;;;;;32.86;33.89;96137.41;5092993;28;20478;-67
2023/07/03 09:53:18;;;;;;;9.73;8.73;;;;;;;32.81;34.73;96136.38;5092928;28;20113;-67
2023/07/03 09:55:46;;;;;;;9.93;8.80;;;;;;;32.69;33.50;96141.59;5092939;28;20056;-67
2023/07/03 09:58:15;;;;;;;9.43;8.52;;;;;;;32.60;35.06;96143.69;5092886;28;20059;-68
2023/07/03 10:00:48;;;;;;;9.95;8.85;;;;;;;32.30;36.91;96142.19;5092818;28;20523;-67
2023/07/03 10:03:24;;;;;;;9.88;8.88;;;;;;;31.67;34.25;96152.22;5092854;28;20138;-67
2023/07/03 10:05:51;;;;;;;9.38;8.13;;;;;;;31.67;36.70;96137.84;5092744;28;20040;-67
2023/07/03 10:08:22;;;;;;;12.23;8.80;;;;;;;31.47;36.04;96152.94;5092758;28;20458;-67
2023/07/03 10:10:54;;;;;;;9.45;8.52;;;;;;;31.08;33.64;96152.50;5092730;28;20044;-67
2023/07/03 10:13:27;;;;;;;9.32;8.32;;;;;;;30.84;36.10;96145.69;5092545;28;20087;-67
2023/07/03 10:15:55;;;;;;;10.20;9.13;;;;;;;30.74;38.35;96141.47;5092685;28;20409;-67
2023/07/03 10:18:29;;;;;;;10.55;9.45;;;;;;;30.66;40.34;96149.69;5092605;28;20048;-67
2023/07/03 10:20:57;;;;;;;11.50;9.63;;;;;;;30.46;41.43;96149.56;5092601;28;20508;-67
2023/07/03 10:23:28;;;;;;;12.23;9.52;;;;;;;30.27;41.40;96146.47;5092570;28;20478;-67
2023/07/03 10:26:04;;;;;;;11.82;10.73;;;;;;;30.16;44.17;96144.25;5092502;28;20123;-67
2023/07/03 10:28:37;;;;;;;11.55;10.35;;;;;;;30.10;43.73;96143.19;5092522;28;20135;-67
2023/07/03 10:31:10;;;;;;;11.60;9.93;;;;;;;30.10;41.09;96141.28;5092447;28;20477;-67
2023/07/03 10:33:43;;;;;;;12.10;9.25;;;;;;;30.22;40.87;96144.34;5096066;28;20048;-66
2023/07/03 10:36:18;;;;;;;12.50;10.00;;;;;;;30.55;40.37;96145.66;5096159;28;20050;-67
2023/07/03 10:38:55;;;;;;;11.48;9.80;;;;;;;30.81;40.46;96141.53;5095985;28;20044;-66
2023/07/03 10:41:27;;;;;;;10.43;9.43;;;;;;;31.17;42.53;96130.72;5096049;28;20048;-67
2023/07/03 10:43:57;;;;;;;11.57;9.10;;;;;;;31.26;38.69;96135.78;5095943;28;20051;-67
2023/07/03 10:46:31;;;;;;;10.77;9.57;;;;;;;31.36;37.86;96131.94;5095726;28;20055;-67
2023/07/03 10:49:04;;;;;;;11.45;10.27;;;;;;;31.40;39.08;96133.19;5095914;28;20440;-67
2023/07/03 10:51:38;;;;;;;10.93;9.85;;;;;;;31.51;38.96;96138.00;5095783;28;20409;-67
2023/07/03 10:54:11;;;;;;;13.43;10.88;;;;;;;31.49;37.84;96131.13;5095718;28;20130;-67
2023/07/03 10:56:44;;;;;;;10.35;9.27;;;;;;;31.26;38.98;96132.25;5095769;28;20494;-67
2023/07/03 10:59:19;;;;;;;10.20;8.90;;;;;;;30.97;38.24;96135.00;5095758;28;20048;-67
2023/07/03 11:01:55;;;;;;;11.25;10.07;;;;;;;30.87;38.07;96131.81;5095602;28;20103;-67
2023/07/03 11:04:32;;;;;;;12.32;10.82;;;;;;;30.76;38.77;96125.94;5095639;28;20056;-67
2023/07/03 11:07:09;;;;;;;12.20;11.00;;;;;;;30.72;40.04;96126.50;5095656;28;20071;-67
2023/07/03 11:09:45;;;;;;;11.48;10.48;;;;;;;30.50;40.79;96121.16;5095449;28;20044;-67
2023/07/03 11:12:22;;;;;;;12.15;10.85;;;;;;;30.26;42.48;96128.63;5095386;28;20122;-67
2023/07/03 11:15:03;;;;;;;13.27;11.68;;;;;;;30.07;41.77;96128.19;5095402;28;20390;-67
2023/07/03 11:17:41;;;;;;;12.75;10.93;;;;;;;30.00;43.47;96132.69;5095310;28;20131;-67
2023/07/03 11:20:18;;;;;;;11.90;10.63;;;;;;;30.11;40.05;96136.75;5095306;28;20106;-66
2023/07/03 11:22:51;;;;;;;12.32;10.73;;;;;;;30.44;41.28;96132.72;5095210;28;20048;-66
2023/07/03 11:25:22;;;;;;;13.75;10.00;;;;;;;30.66;39.37;96130.81;5095185;28;20460;-66
2023/07/03 11:27:57;;;;;;;11.50;10.40;;;;;;;30.88;37.70;96125.41;5095169;28;20055;-67
2023/07/03 11:30:26;;;;;;;11.00;10.00;;;;;;;31.02;37.89;96123.59;5095172;28;20040;-67
2023/07/03 11:32:54;;;;;;;13.63;10.18;;;;;;;30.81;38.68;96122.66;5095227;28;20102;-67
2023/07/03 11:35:24;;;;;;;11.52;10.23;;;;;;;30.74;37.20;96129.84;5094983;28;20097;-67
2023/07/03 11:38:01;;;;;;;10.63;9.27;;;;;;;30.45;38.99;96127.13;5095023;28;20058;-66